White Pine, Pennsylvania
Current Conditions -  °F | °C
As of 9:54 PM on Wednesday 26 Nov 2014 (Local Time) from KIPT Reporting Station
Overcast Overcast  
Wind Chill: 24°   Ceiling: 2700
Heat Index: 32°   Visibility: 10mi
Dew Point: 29°   Wind: 9mph
Humidity: 88%   Direction: 270°W
Pressure: 29.96"   Gusts: NA
Location:  41.4223°N, 76.9976°W
Report Text: KIPT 270254Z AUTO 27008KT 10SM BKN027 OVC075 00/M02 A2996 RMK AO2 SLP150 60000 T00001017 55004
Loading
Personal Weather Stations






























Interactive Weather Map New forecast layout! Learn more

10-Day Weather Forecast

Advertisements
Track Severe Weather on mobile